Have a Safe July 4th! 

Flight Track Log - Related Links

Times and Time Zones

All times are in EDT time to prevent confusion due to time zone crossing. See the N140AF flight status page for this flight to view local times or setup timezone preferences in your user account.

Time Position Orientation Groundspeed Altitude Reporting Facility
EDT Latitude Longitude Course Direction KTS MPH feet Rate Location/Type
Wed 12:24:48 AM 41.8000 -87.7167 90° East 78 90 1,700  Level Chicago TRACON
Wed 12:25:42 AM 41.8000 -87.6833 90° East 83 96 2,200 574 Climbing Chicago TRACON
Wed 12:26:43 AM 41.8000 -87.6500 90° East 89 102 2,800 397 Climbing Chicago TRACON
Wed 12:27:43 AM 41.8000 -87.6167 90° East 111 128 3,000 412 Climbing Chicago TRACON
Wed 12:28:25 AM 41.7947 -87.5925 106° East 92 106 3,500 647 Climbing Chicago Center
Wed 12:29:25 AM 41.7769 -87.5678 134° Southeast 91 105 4,100 550 Climbing Chicago Center
Wed 12:30:00 AM 41.7833 -87.4454 90° East  Level FlightAware Approximate
Wed 12:30:25 AM 41.7594 -87.5425 133° Southeast 92 106 4,600  Level Chicago Center
Wed 12:31:25 AM 41.7419 -87.5183 134° Southeast 91 105 5,000 198 Climbing Chicago Center
Wed 12:32:26 AM 41.7192 -87.4856 133° Southeast 111 128 5,000 347 Level Chicago Center
Wed 12:33:26 AM 41.6958 -87.4536 134° Southeast 120 138 5,700 500 Climbing Chicago Center
Wed 12:34:26 AM 41.6767 -87.4233 130° Southeast 109 125 6,000 150 Climbing Chicago Center
Wed 12:35:26 AM 41.6703 -87.3822 102° East 124 143 6,000  Level Chicago Center
Wed 12:36:27 AM 41.6717 -87.3319 88° East 134 154 6,000  Level Chicago Center
Wed 12:37:27 AM 41.6733 -87.2814 87° East 136 157 6,000  Level Chicago Center
Wed 12:38:27 AM 41.6753 -87.2308 87° East 137 158 6,000  Level Chicago Center
Wed 12:39:28 AM 41.6783 -87.1800 85° East 138 159 6,000  Level Chicago Center
Wed 12:40:28 AM 41.6808 -87.1297 86° East 136 157 6,000  Level Chicago Center
Wed 12:41:28 AM 41.6833 -87.0792 86° East 137 158 6,000 347 Level Chicago Center
Wed 12:42:29 AM 41.6844 -87.0389 88° East 108 124 6,700 496 Climbing Chicago Center
Wed 12:43:29 AM 41.6858 -87.0000 87° East 103 119 7,000 150 Climbing Chicago Center
Wed 12:44:29 AM 41.6883 -86.9539 86° East 122 140 7,000  Level Chicago Center
Wed 12:45:30 AM 41.6956 -86.9039 79° East 138 159 7,000  Level Chicago Center
Wed 12:46:30 AM 41.7142 -86.8583 61° Northeast 141 162 7,000  Level Chicago Center
Wed 12:47:30 AM 41.7328 -86.8131 61° Northeast 140 161 7,000  Level Chicago Center
Wed 12:48:30 AM 41.7492 -86.7672 64° Northeast 137 158 7,000  Level Chicago Center
Wed 12:49:31 AM 41.7658 -86.7208 64° Northeast 139 160 7,000  Level Chicago Center
Wed 12:50:31 AM 41.7861 -86.6692 62° Northeast 139 160 7,000  Level Chicago Center
Wed 12:51:31 AM 41.8022 -86.6233 65° Northeast 137 158 7,000  Level Chicago Center
Wed 12:52:32 AM 41.8197 -86.5789 62° Northeast 135 155 7,000  Level Chicago Center
Wed 12:53:32 AM 41.8369 -86.5336 63° Northeast 136 157 7,000  Level Chicago Center
Wed 12:54:32 AM 41.8528 -86.4897 64° Northeast 133 153 7,000  Level Chicago Center
Wed 12:55:33 AM 41.8703 -86.4458 62° Northeast 133 153 7,000  Level Chicago Center
Wed 12:56:33 AM 41.8856 -86.4011 65° Northeast 133 153 7,000 -100 Level Chicago Center
Wed 12:57:33 AM 41.9033 -86.3569 62° Northeast 134 154 6,800 -344 Descending Chicago Center
Wed 12:58:35 AM 41.9192 -86.3108 65° Northeast 137 158 6,300 -492 Descending Chicago Center
Wed 12:59:35 AM 41.9378 -86.2617 63° Northeast 146 168 5,800 -500 Descending Chicago Center
Wed 01:00:35 AM 41.9558 -86.2119 64° Northeast 147 169 5,300 -397 Descending Chicago Center
Wed 01:01:36 AM 41.9747 -86.1619 63° Northeast 150 173 5,000 -298 Descending Chicago Center
Wed 01:02:36 AM 41.9925 -86.1136 64° Northeast 147 169 4,700 -350 Descending Chicago Center
Wed 01:03:36 AM 42.0122 -86.0603 64° Northeast 154 177 4,300 -450 Descending Chicago Center
Wed 01:04:36 AM 42.0319 -86.0078 63° Northeast 158 182 3,800 -496 Descending Chicago Center
Wed 01:05:37 AM 42.0514 -85.9528 65° Northeast 160 184 3,300 -397 Descending Chicago Center
Wed 01:06:37 AM 42.0719 -85.9000 62° Northeast 160 184 3,000 -150 Descending Chicago Center
Wed 01:07:37 AM 42.0900 -85.8492 64° Northeast 155 178 3,000  Level Chicago Center
Wed 01:08:37 AM 42.1072 -85.8033 63° Northeast 144 166 3,000  Level Chicago Center
Wed 01:09:38 AM 42.1228 -85.7569 66° East 137 158 3,000  Level Chicago Center
Wed 01:10:38 AM 42.1394 -85.7119 63° Northeast 136 157 3,000  Level Chicago Center
Wed 01:11:38 AM 42.1569 -85.6664 63° Northeast 137 158 3,000  Level Chicago Center
Wed 01:12:38 AM 42.1739 -85.6200 64° Northeast 138 159 3,000  Level Chicago Center
Wed 01:13:39 AM 42.1903 -85.5728 65° Northeast 139 160 3,000  Level Chicago Center

Login

Don't have an account? Register now (free) for customized features, flight alerts, and more!